Time;durP1;ratioP1;P1;durP2;ratioP2;P2;SDS_P1;SDS_P2;PMS_P1;PMS_P2;Temp;Humidity;BMP_temperature;BMP_pressure;BME280_temperature;BME280_humidity;BME280_pressure;Samples;Min_cycle;Max_cycle;Signal;HPM_P1;HPM_P2
2023/10/05 02:35:24;;;;;;;17.53;6.50;;;12.20;99.90;;;;;;5349170;22;20490;-60
2023/10/05 02:37:52;;;;;;;9.77;5.67;;;12.20;99.90;;;;;;5029228;28;20517;-58
2023/10/05 02:40:25;;;;;;;13.20;5.80;;;12.20;99.90;;;;;;5016519;28;20493;-60
2023/10/05 02:42:54;;;;;;;14.80;5.87;;;12.10;99.90;;;;;;5029306;28;20459;-58
2023/10/05 02:45:21;;;;;;;10.50;5.63;;;12.10;99.90;;;;;;5017186;28;21200;-59
2023/10/05 02:47:48;;;;;;;16.17;5.57;;;12.10;99.90;;;;;;5002823;28;20460;-62
2023/10/05 02:50:16;;;;;;;16.70;5.40;;;12.10;99.90;;;;;;5005056;28;20456;-62
2023/10/05 02:52:43;;;;;;;9.70;5.47;;;12.00;99.90;;;;;;5004414;28;20953;-61
2023/10/05 02:55:09;;;;;;;15.00;5.83;;;12.00;99.90;;;;;;5008345;28;20903;-61
2023/10/05 02:57:39;;;;;;;16.50;5.70;;;12.00;99.90;;;;;;5005405;28;20531;-62
2023/10/05 03:00:08;;;;;;;11.47;5.23;;;12.00;99.90;;;;;;5010353;28;20463;-63
2023/10/05 03:02:44;;;;;;;11.00;5.77;;;12.10;99.90;;;;;;5010378;28;20897;-61
2023/10/05 03:05:10;;;;;;;15.43;6.60;;;12.00;99.90;;;;;;5003787;28;20467;-62
2023/10/05 03:07:41;;;;;;;17.60;6.33;;;12.00;99.90;;;;;;5010625;28;20447;-62
2023/10/05 03:10:13;;;;;;;14.63;7.00;;;12.00;99.90;;;;;;5011814;28;20835;-63
2023/10/05 03:12:39;;;;;;;12.70;6.43;;;12.10;99.90;;;;;;5004093;28;20490;-62
2023/10/05 03:15:08;;;;;;;19.60;5.73;;;12.00;99.90;;;;;;5011748;28;20494;-62
2023/10/05 03:17:36;;;;;;;14.50;5.70;;;12.10;99.90;;;;;;5011837;28;20479;-63
2023/10/05 03:20:08;;;;;;;11.37;5.77;;;12.10;99.90;;;;;;5005523;28;21015;-61
2023/10/05 03:22:35;;;;;;;18.87;6.10;;;12.10;99.90;;;;;;5012114;28;20926;-62
2023/10/05 03:25:04;;;;;;;9.60;5.43;;;12.10;99.90;;;;;;5011716;28;21297;-62
2023/10/05 03:27:31;;;;;;;16.63;6.50;;;12.10;99.90;;;;;;5010632;28;20548;-63
2023/10/05 03:30:03;;;;;;;12.30;5.30;;;12.10;99.90;;;;;;5009505;28;20467;-63
2023/10/05 03:32:30;;;;;;;13.67;5.43;;;12.10;99.90;;;;;;5011598;28;20536;-62
2023/10/05 03:34:57;;;;;;;14.20;5.00;;;12.10;99.90;;;;;;5011386;28;20495;-63
2023/10/05 03:37:24;;;;;;;16.10;5.87;;;12.20;99.90;;;;;;5004530;28;20455;-63
2023/10/05 03:39:53;;;;;;;13.57;5.30;;;12.10;99.90;;;;;;5011610;28;20853;-61
2023/10/05 03:42:22;;;;;;;11.33;5.27;;;12.10;99.90;;;;;;5010157;28;20466;-62
2023/10/05 03:44:59;;;;;;;10.90;5.20;;;12.10;99.90;;;;;;5011552;28;20470;-62
2023/10/05 03:47:26;;;;;;;11.50;5.50;;;12.10;99.90;;;;;;5009587;28;21005;-63
2023/10/05 03:49:56;;;;;;;12.73;5.30;;;12.10;99.90;;;;;;4994633;28;20496;-63
2023/10/05 03:52:29;;;;;;;16.40;4.70;;;12.10;99.90;;;;;;5012197;28;20535;-63
2023/10/05 03:55:00;;;;;;;13.00;4.80;;;12.10;99.90;;;;;;5009915;28;20476;-63
2023/10/05 03:57:31;;;;;;;12.07;5.40;;;12.20;99.90;;;;;;5010111;28;20971;-63
2023/10/05 03:59:58;;;;;;;15.40;6.17;;;12.20;99.90;;;;;;5000404;28;20464;-61
2023/10/05 04:02:25;;;;;;;11.60;5.80;;;12.20;99.90;;;;;;5008777;28;20463;-62
2023/10/05 04:04:52;;;;;;;10.03;5.63;;;12.20;99.90;;;;;;5001896;28;20485;-60
2023/10/05 04:07:20;;;;;;;13.60;6.20;;;12.30;99.90;;;;;;5010110;28;20460;-62
2023/10/05 04:09:48;;;;;;;11.07;5.93;;;12.30;99.90;;;;;;4999024;28;20464;-61
2023/10/05 04:12:15;;;;;;;15.70;6.27;;;12.30;99.90;;;;;;5002516;28;20456;-63
2023/10/05 04:14:43;;;;;;;10.40;5.30;;;12.30;99.90;;;;;;5008158;28;20479;-62
2023/10/05 04:17:11;;;;;;;11.70;6.07;;;12.40;99.90;;;;;;4996123;28;20456;-63
2023/10/05 04:19:41;;;;;;;13.30;5.83;;;12.30;99.90;;;;;;5000395;28;20484;-64
2023/10/05 04:22:08;;;;;;;11.00;5.43;;;12.40;99.90;;;;;;5005457;28;20566;-62
2023/10/05 04:24:34;;;;;;;9.97;5.60;;;12.40;99.90;;;;;;5011348;28;20518;-61
2023/10/05 04:27:01;;;;;;;12.67;5.90;;;12.40;99.90;;;;;;5009219;28;20490;-61
2023/10/05 04:29:28;;;;;;;13.30;5.87;;;12.50;99.90;;;;;;5004966;28;20459;-63
2023/10/05 04:31:55;;;;;;;12.40;5.87;;;12.40;99.90;;;;;;5010385;28;20452;-62
2023/10/05 04:34:24;;;;;;;14.83;6.33;;;12.40;99.90;;;;;;5010634;28;20476;-63
2023/10/05 04:36:54;;;;;;;12.93;5.70;;;12.50;99.90;;;;;;5009209;28;20463;-62
2023/10/05 04:39:27;;;;;;;14.93;6.30;;;12.50;99.90;;;;;;5009388;28;20519;-63
2023/10/05 04:41:55;;;;;;;15.87;5.93;;;12.50;99.90;;;;;;5008970;28;20623;-62
2023/10/05 04:44:21;;;;;;;14.10;5.80;;;12.50;99.90;;;;;;5008061;28;20475;-62
2023/10/05 04:46:49;;;;;;;12.57;6.87;;;12.50;99.90;;;;;;5006270;28;20451;-63
2023/10/05 04:49:18;;;;;;;16.07;8.07;;;12.60;99.90;;;;;;5010262;28;20443;-62
2023/10/05 04:51:45;;;;;;;16.57;7.60;;;12.50;99.90;;;;;;5009001;28;20487;-57
2023/10/05 04:54:18;;;;;;;15.87;7.67;;;12.50;99.90;;;;;;5010389;28;21011;-57
2023/10/05 04:56:53;;;;;;;17.70;8.17;;;12.60;99.90;;;;;;5009033;28;20467;-58
2023/10/05 04:59:25;;;;;;;17.10;7.97;;;12.60;99.90;;;;;;5010146;28;20490;-57
2023/10/05 05:02:00;;;;;;;19.53;9.37;;;12.60;99.90;;;;;;5004325;28;20456;-58
2023/10/05 05:04:40;;;;;;;17.73;7.90;;;12.60;99.90;;;;;;5009655;28;20489;-59
2023/10/05 05:07:09;;;;;;;20.47;8.83;;;12.60;99.90;;;;;;5009951;28;20463;-57
2023/10/05 05:09:38;;;;;;;13.03;7.03;;;12.60;99.90;;;;;;5008544;28;20973;-58
2023/10/05 05:12:08;;;;;;;15.97;5.63;;;12.60;99.90;;;;;;5008246;28;20541;-58
2023/10/05 05:14:36;;;;;;;13.23;6.33;;;12.60;99.90;;;;;;5009713;28;20518;-58
2023/10/05 05:17:05;;;;;;;18.43;6.10;;;12.60;99.90;;;;;;5005674;28;20815;-57
2023/10/05 05:19:35;;;;;;;23.47;6.53;;;12.60;99.90;;;;;;5006345;28;20574;-58
2023/10/05 05:22:02;;;;;;;13.30;5.90;;;12.70;99.90;;;;;;5010640;28;20447;-58
2023/10/05 05:24:29;;;;;;;14.63;6.10;;;12.60;99.90;;;;;;5011119;28;20463;-58
2023/10/05 05:27:00;;;;;;;11.80;5.43;;;12.60;99.90;;;;;;5008919;28;20491;-58
2023/10/05 05:29:29;;;;;;;12.90;5.57;;;12.70;99.90;;;;;;5003435;28;20494;-59
2023/10/05 05:31:56;;;;;;;12.10;5.50;;;12.60;99.90;;;;;;5002218;28;20900;-59
2023/10/05 05:34:25;;;;;;;14.10;6.10;;;12.70;99.90;;;;;;5008095;28;20529;-57
2023/10/05 05:36:54;;;;;;;11.00;5.90;;;12.70;99.90;;;;;;5009447;28;20483;-57
2023/10/05 05:39:21;;;;;;;15.67;5.30;;;12.70;99.90;;;;;;5009412;28;20838;-57
2023/10/05 05:41:56;;;;;;;21.37;5.97;;;12.70;99.90;;;;;;5007170;28;20464;-56
2023/10/05 05:44:22;;;;;;;16.40;6.30;;;12.70;99.90;;;;;;5007820;28;20859;-57
2023/10/05 05:46:51;;;;;;;12.03;5.23;;;12.70;99.90;;;;;;5009328;28;20952;-56
2023/10/05 05:49:21;;;;;;;15.60;5.77;;;12.70;99.90;;;;;;5001897;28;20452;-57
2023/10/05 05:51:48;;;;;;;20.30;6.63;;;12.70;99.90;;;;;;5009864;28;20475;-57
2023/10/05 05:54:18;;;;;;;13.97;6.30;;;12.80;99.90;;;;;;5001960;28;20494;-58
2023/10/05 05:56:45;;;;;;;14.13;5.17;;;12.80;99.90;;;;;;5009307;28;20451;-58
2023/10/05 05:59:12;;;;;;;21.23;6.50;;;12.80;99.90;;;;;;5003275;28;20487;-58
2023/10/05 06:01:38;;;;;;;12.80;6.47;;;12.80;99.90;;;;;;5005847;28;20472;-59
2023/10/05 06:04:05;;;;;;;20.07;6.17;;;12.80;99.90;;;;;;5002181;28;20541;-59
2023/10/05 06:06:34;;;;;;;15.83;6.43;;;12.80;99.90;;;;;;4998399;28;20745;-56
2023/10/05 06:09:07;;;;;;;17.03;5.80;;;12.80;99.90;;;;;;5007498;28;20451;-58
2023/10/05 06:11:35;;;;;;;13.60;6.17;;;12.90;99.90;;;;;;5000536;28;20546;-59
2023/10/05 06:14:03;;;;;;;15.13;6.30;;;12.90;99.90;;;;;;5004511;28;20494;-58
2023/10/05 06:16:31;;;;;;;14.70;6.43;;;12.90;99.90;;;;;;4993192;28;20464;-59
2023/10/05 06:18:58;;;;;;;17.93;5.90;;;13.00;99.90;;;;;;5003234;28;20924;-59
2023/10/05 06:21:25;;;;;;;12.30;5.63;;;13.00;99.90;;;;;;5004472;28;20463;-60
2023/10/05 06:23:51;;;;;;;11.13;5.40;;;13.00;99.90;;;;;;5002757;28;20463;-58
2023/10/05 06:26:18;;;;;;;13.13;6.23;;;13.10;99.90;;;;;;5003057;28;20962;-60
2023/10/05 06:28:46;;;;;;;12.57;5.17;;;13.10;99.90;;;;;;5006064;28;20513;-59
2023/10/05 06:31:12;;;;;;;12.60;5.90;;;13.10;99.90;;;;;;5002374;28;20487;-60
2023/10/05 06:33:42;;;;;;;13.90;5.97;;;13.10;99.90;;;;;;5008170;28;20570;-60
2023/10/05 06:36:08;;;;;;;19.37;5.90;;;13.20;99.90;;;;;;4992462;28;21447;-60
2023/10/05 06:38:35;;;;;;;11.30;5.80;;;13.20;99.90;;;;;;5009614;28;20487;-60
2023/10/05 06:41:03;;;;;;;10.83;5.00;;;13.20;99.90;;;;;;5006513;28;20474;-60
2023/10/05 06:43:35;;;;;;;16.97;6.63;;;13.20;99.90;;;;;;5011233;28;20460;-60
2023/10/05 06:46:09;;;;;;;10.53;5.10;;;13.30;99.90;;;;;;5010699;28;20494;-59
2023/10/05 06:48:36;;;;;;;11.20;5.50;;;13.30;99.90;;;;;;5005073;28;20543;-61
2023/10/05 06:51:03;;;;;;;17.00;6.13;;;13.30;99.90;;;;;;4998492;28;20451;-59
2023/10/05 06:53:29;;;;;;;15.23;6.23;;;13.30;99.90;;;;;;5008082;28;20503;-59
2023/10/05 06:55:57;;;;;;;19.13;5.60;;;13.40;99.90;;;;;;5004008;28;20483;-60
2023/10/05 06:58:23;;;;;;;16.17;6.00;;;13.40;99.90;;;;;;5005084;28;20978;-61
2023/10/05 07:00:50;;;;;;;12.03;5.37;;;13.40;99.90;;;;;;4997177;28;20468;-60
2023/10/05 07:03:20;;;;;;;14.57;6.47;;;13.40;99.90;;;;;;5012265;28;20474;-60
2023/10/05 07:05:47;;;;;;;14.60;6.37;;;13.50;99.90;;;;;;5006386;28;20834;-59
2023/10/05 07:08:14;;;;;;;12.67;5.60;;;13.50;99.90;;;;;;5005429;28;20459;-60
2023/10/05 07:10:41;;;;;;;8.23;5.50;;;13.50;99.90;;;;;;5011094;28;20455;-61
2023/10/05 07:13:09;;;;;;;15.60;6.13;;;13.50;99.90;;;;;;5013153;28;21138;-59
2023/10/05 07:15:36;;;;;;;11.80;5.50;;;13.60;99.90;;;;;;5011713;28;20476;-61
2023/10/05 07:18:03;;;;;;;12.53;6.17;;;13.60;99.90;;;;;;5005746;28;20455;-62
2023/10/05 07:20:32;;;;;;;16.73;5.53;;;13.60;99.90;;;;;;5009652;28;20487;-62
2023/10/05 07:22:59;;;;;;;10.13;5.17;;;13.60;99.90;;;;;;5008669;28;20460;-62
2023/10/05 07:25:25;;;;;;;15.87;7.07;;;13.60;99.90;;;;;;5012655;28;20460;-62
2023/10/05 07:27:52;;;;;;;17.10;5.90;;;13.70;99.90;;;;;;5012062;28;20873;-60
2023/10/05 07:30:19;;;;;;;17.73;5.67;;;13.70;99.90;;;;;;5013708;28;20440;-58
2023/10/05 07:32:46;;;;;;;14.97;5.73;;;13.70;99.90;;;;;;5013019;28;20444;-58
2023/10/05 07:35:14;;;;;;;13.63;5.53;;;13.80;99.90;;;;;;5012406;28;21000;-58
2023/10/05 07:37:41;;;;;;;14.10;5.50;;;13.90;99.90;;;;;;5013558;28;20819;-58
2023/10/05 07:40:09;;;;;;;15.27;5.47;;;14.00;99.90;;;;;;5011316;28;20488;-58
2023/10/05 07:42:37;;;;;;;18.27;6.50;;;14.10;99.90;;;;;;5009184;28;20468;-58
2023/10/05 07:45:07;;;;;;;12.80;5.53;;;14.10;99.90;;;;;;5008798;28;20853;-58
2023/10/05 07:47:33;;;;;;;17.00;4.97;;;14.20;99.90;;;;;;5003924;28;20495;-58
2023/10/05 07:50:00;;;;;;;12.00;4.97;;;14.30;99.90;;;;;;5003699;28;20452;-58
2023/10/05 07:52:27;;;;;;;14.57;5.67;;;14.40;99.90;;;;;;5002844;28;20500;-55
2023/10/05 07:54:55;;;;;;;19.57;5.50;;;14.40;99.90;;;;;;5004734;28;20526;-59
2023/10/05 07:57:22;;;;;;;10.20;4.63;;;14.50;99.90;;;;;;5004409;28;20482;-59
2023/10/05 07:59:48;;;;;;;13.30;5.20;;;14.60;99.90;;;;;;5009276;28;20537;-59
2023/10/05 08:02:15;;;;;;;14.10;5.73;;;14.60;99.90;;;;;;5008549;28;20468;-59
2023/10/05 08:04:44;;;;;;;20.27;5.27;;;14.70;99.90;;;;;;5004502;28;20484;-59
2023/10/05 08:07:11;;;;;;;14.47;4.60;;;14.70;99.90;;;;;;4996124;28;20448;-59
2023/10/05 08:09:37;;;;;;;12.20;6.13;;;14.70;99.90;;;;;;5006727;28;20539;-64
2023/10/05 08:12:05;;;;;;;18.27;5.00;;;14.80;99.90;;;;;;5004054;28;20547;-62
2023/10/05 08:14:32;;;;;;;12.33;5.17;;;14.80;99.90;;;;;;5004470;28;20519;-63
2023/10/05 08:16:59;;;;;;;16.87;4.83;;;14.80;99.90;;;;;;5006591;28;20444;-63
2023/10/05 08:19:26;;;;;;;13.70;5.23;;;14.90;99.90;;;;;;5009331;28;20519;-62
2023/10/05 08:21:53;;;;;;;11.87;4.20;;;14.90;99.90;;;;;;5003174;28;20460;-62
2023/10/05 08:24:20;;;;;;;11.13;4.90;;;15.00;99.90;;;;;;5006285;28;20554;-61
2023/10/05 08:26:48;;;;;;;14.33;4.67;;;15.10;99.90;;;;;;5009421;28;20519;-62
2023/10/05 08:29:17;;;;;;;13.73;5.00;;;15.20;99.90;;;;;;5001343;28;20543;-61
2023/10/05 08:31:44;;;;;;;8.93;4.23;;;15.40;99.90;;;;;;5004371;28;20463;-63
2023/10/05 08:34:14;;;;;;;11.37;4.83;;;15.40;99.90;;;;;;5003598;28;20837;-62
2023/10/05 08:36:41;;;;;;;19.93;4.97;;;15.50;99.90;;;;;;5002456;28;20886;-61
2023/10/05 08:39:08;;;;;;;16.10;4.10;;;15.50;99.90;;;;;;5007314;28;20479;-60
2023/10/05 08:41:35;;;;;;;8.87;4.37;;;15.50;99.90;;;;;;5005081;28;20832;-60
2023/10/05 08:44:07;;;;;;;24.27;4.53;;;15.50;99.90;;;;;;4999106;28;20492;-61
2023/10/05 08:46:41;;;;;;;17.73;5.00;;;15.50;99.90;;;;;;5008721;28;20522;-60
2023/10/05 08:49:10;;;;;;;19.00;4.33;;;15.40;99.90;;;;;;5032330;22;20506;-53
2023/10/05 08:51:36;;;;;;;37.23;4.70;;;15.30;99.90;;;;;;5025489;28;20792;-52
2023/10/05 08:54:09;;;;;;;13.93;4.50;;;15.30;99.90;;;;;;5018888;28;20948;-52
2023/10/05 08:56:37;;;;;;;14.50;5.23;;;15.30;99.90;;;;;;5023930;28;20463;-52
2023/10/05 08:59:07;;;;;;;11.10;4.20;;;15.20;99.90;;;;;;5016264;28;20515;-52
2023/10/05 09:01:35;;;;;;;13.30;4.83;;;15.20;99.90;;;;;;5003524;28;20869;-53
2023/10/05 09:04:11;;;;;;;19.43;4.90;;;15.20;99.90;;;;;;5012411;28;20475;-53
2023/10/05 09:06:47;;;;;;;15.10;4.30;;;15.30;99.90;;;;;;5008503;28;20459;-52
2023/10/05 09:09:14;;;;;;;17.57;4.63;;;15.30;99.90;;;;;;5010737;28;20554;-53
2023/10/05 09:11:41;;;;;;;12.20;4.77;;;15.30;99.90;;;;;;4998667;28;20513;-52
2023/10/05 09:14:13;;;;;;;11.90;5.03;;;15.30;99.90;;;;;;5010763;28;20609;-53
2023/10/05 09:16:43;;;;;;;21.90;4.93;;;15.30;99.90;;;;;;5003725;28;20468;-53
2023/10/05 09:19:17;;;;;;;11.53;5.47;;;15.30;99.90;;;;;;5007545;28;20483;-53
2023/10/05 09:21:50;;;;;;;10.60;5.03;;;15.30;99.90;;;;;;5009352;28;20464;-53
2023/10/05 09:24:21;;;;;;;17.87;5.00;;;15.20;99.90;;;;;;5004132;28;20462;-53
2023/10/05 09:26:54;;;;;;;15.90;4.43;;;15.30;99.90;;;;;;5001887;28;20472;-52
2023/10/05 09:29:21;;;;;;;11.90;3.93;;;15.30;99.90;;;;;;5006801;28;20535;-54
2023/10/05 09:31:51;;;;;;;12.50;4.43;;;15.30;99.90;;;;;;5006333;28;20806;-52
2023/10/05 09:34:36;;;;;;;16.47;4.30;;;15.20;99.90;;;;;;5011130;28;20446;-52
2023/10/05 09:37:05;;;;;;;11.90;4.87;;;15.20;99.90;;;;;;5009744;28;20904;-51
2023/10/05 09:39:37;;;;;;;16.67;5.40;;;15.20;99.90;;;;;;4995716;28;20495;-52
2023/10/05 09:42:05;;;;;;;9.97;4.70;;;15.20;99.90;;;;;;5006693;28;20463;-52
2023/10/05 09:44:36;;;;;;;14.03;5.10;;;15.20;99.90;;;;;;5010219;28;20470;-58
2023/10/05 09:47:03;;;;;;;10.13;4.10;;;15.20;99.90;;;;;;5011001;28;20547;-53
2023/10/05 09:49:34;;;;;;;19.50;5.60;;;15.20;99.90;;;;;;5006853;28;20487;-52
2023/10/05 09:52:02;;;;;;;18.23;4.97;;;15.20;99.90;;;;;;5009824;28;20851;-53
2023/10/05 09:54:31;;;;;;;9.50;3.80;;;15.20;99.90;;;;;;5015587;28;20448;-52
2023/10/05 09:56:57;;;;;;;9.83;4.20;;;15.20;99.90;;;;;;5015159;28;20532;-51
2023/10/05 09:59:26;;;;;;;14.90;4.60;;;15.20;99.90;;;;;;5020835;28;20507;-54
2023/10/05 10:01:53;;;;;;;10.80;4.60;;;15.20;99.90;;;;;;5030302;28;20447;-54
2023/10/05 10:04:35;;;;;;;11.33;5.10;;;15.20;99.90;;;;;;5034512;28;20474;-52
2023/10/05 10:07:15;;;;;;;20.07;4.70;;;15.20;99.90;;;;;;5031591;28;20443;-52
2023/10/05 10:09:46;;;;;;;17.00;5.27;;;15.20;99.90;;;;;;5007293;28;20475;-53
2023/10/05 10:12:25;;;;;;;17.23;4.30;;;15.10;99.90;;;;;;4991849;28;25087;-54
2023/10/05 10:14:53;;;;;;;23.00;4.53;;;15.10;99.90;;;;;;5005977;28;20518;-52
2023/10/05 10:17:27;;;;;;;10.23;5.00;;;14.90;99.90;;;;;;4998715;28;20451;-53
2023/10/05 10:20:06;;;;;;;10.40;4.73;;;14.80;97.20;;;;;;5011752;28;20645;-53
2023/10/05 10:22:50;;;;;;;7.47;4.13;;;14.60;79.40;;;;;;4999963;28;20828;-53
2023/10/05 10:25:38;;;;;;;8.93;4.43;;;14.40;68.50;;;;;;5012224;28;20467;-53
2023/10/05 10:28:16;;;;;;;9.97;4.80;;;14.40;61.40;;;;;;5007188;28;20487;-52
2023/10/05 10:31:16;;;;;;;13.97;4.97;;;14.30;56.90;;;;;;5002630;28;20911;-53
2023/10/05 10:33:43;;;;;;;10.17;4.17;;;14.30;55.40;;;;;;4989110;28;20974;-52
2023/10/05 10:36:19;;;;;;;10.67;4.83;;;14.30;56.30;;;;;;5003013;28;20502;-53
2023/10/05 10:38:50;;;;;;;12.87;4.27;;;14.30;54.10;;;;;;5007976;28;20467;-52
2023/10/05 10:41:17;;;;;;;12.47;4.30;;;14.40;55.80;;;;;;4993632;28;20579;-54
2023/10/05 10:43:49;;;;;;;10.70;4.57;;;14.40;55.70;;;;;;5010249;28;20456;-53
2023/10/05 10:46:34;;;;;;;15.20;4.67;;;14.50;59.10;;;;;;5002605;28;20444;-52
2023/10/05 10:49:01;;;;;;;8.97;3.90;;;14.50;70.30;;;;;;5003955;28;20839;-53
2023/10/05 10:51:31;;;;;;;11.67;4.53;;;14.50;68.60;;;;;;5005826;28;20456;-52
2023/10/05 10:54:08;;;;;;;12.90;3.83;;;14.40;62.60;;;;;;5011376;28;20473;-53
2023/10/05 10:56:41;;;;;;;11.10;5.13;;;14.40;60.20;;;;;;5014869;28;20451;-53
2023/10/05 10:59:11;;;;;;;14.00;4.43;;;14.30;57.20;;;;;;5008422;28;21025;-53
2023/10/05 11:01:44;;;;;;;10.73;3.90;;;14.30;57.50;;;;;;4999425;28;20516;-53
2023/10/05 11:06:59;;;;;;;11.93;4.17;;;14.40;58.50;;;;;;5005514;28;20608;-53
2023/10/05 11:09:34;;;;;;;12.57;4.50;;;14.40;64.10;;;;;;5014231;28;20455;-53
2023/10/05 11:12:10;;;;;;;13.73;3.73;;;14.60;66.60;;;;;;5014705;28;20443;-53
2023/10/05 11:14:41;;;;;;;12.93;4.40;;;14.70;69.90;;;;;;5007417;28;20962;-53
2023/10/05 11:17:24;;;;;;;12.23;4.50;;;14.80;80.00;;;;;;5007693;28;20509;-54
2023/10/05 11:19:51;;;;;;;14.63;4.77;;;14.80;92.00;;;;;;5007066;28;20898;-53
2023/10/05 11:22:23;;;;;;;13.10;4.20;;;14.90;96.10;;;;;;5002375;28;20474;-54
2023/10/05 11:25:15;;;;;;;11.30;4.10;;;14.80;96.80;;;;;;5013672;28;20444;-53
2023/10/05 11:27:48;;;;;;;7.60;3.67;;;14.80;93.30;;;;;;5002184;28;20463;-53
2023/10/05 11:30:24;;;;;;;9.90;4.00;;;14.80;84.10;;;;;;5007588;28;20473;-52
2023/10/05 11:32:56;;;;;;;9.70;3.70;;;14.70;75.50;;;;;;5011301;28;20471;-52
2023/10/05 11:35:29;;;;;;;6.90;3.47;;;14.70;77.80;;;;;;4999657;28;20492;-52
2023/10/05 11:37:59;;;;;;;18.67;4.03;;;14.70;81.00;;;;;;4996811;28;20940;-52
2023/10/05 11:40:31;;;;;;;7.33;3.90;;;14.60;78.10;;;;;;5011921;28;20575;-53
2023/10/05 11:42:57;;;;;;;6.43;3.20;;;14.70;71.00;;;;;;5010202;28;20478;-56
2023/10/05 11:45:24;;;;;;;11.30;3.57;;;14.60;66.30;;;;;;5001660;28;20597;-56
2023/10/05 11:47:52;;;;;;;8.53;3.30;;;14.60;70.70;;;;;;5010148;28;20456;-56
2023/10/05 11:50:28;;;;;;;9.73;3.50;;;14.60;66.80;;;;;;5011523;28;20452;-56
2023/10/05 11:52:55;;;;;;;11.50;3.83;;;14.60;61.80;;;;;;5009369;28;20527;-57
2023/10/05 11:55:22;;;;;;;10.60;3.20;;;14.60;59.80;;;;;;5015037;28;20462;-55
2023/10/05 11:57:52;;;;;;;10.70;4.10;;;14.50;55.00;;;;;;5010616;28;21008;-57
2023/10/05 12:00:19;;;;;;;8.43;3.50;;;14.50;49.60;;;;;;5007771;28;20483;-56
2023/10/05 12:02:46;;;;;;;12.53;4.47;;;14.50;43.70;;;;;;5003716;28;20469;-56
2023/10/05 12:05:12;;;;;;;15.10;4.10;;;14.50;43.70;;;;;;4999154;28;20484;-56
2023/10/05 12:07:41;;;;;;;17.40;3.20;;;14.50;43.30;;;;;;5003960;28;20460;-57
2023/10/05 12:10:10;;;;;;;13.90;3.80;;;14.50;41.80;;;;;;5003606;28;20456;-57
2023/10/05 12:12:37;;;;;;;9.57;3.50;;;14.50;39.20;;;;;;4999994;28;20458;-58
2023/10/05 12:15:12;;;;;;;10.07;3.90;;;14.40;36.20;;;;;;5003414;28;20460;-57
2023/10/05 12:17:39;;;;;;;12.97;4.50;;;14.40;27.80;;;;;;5011204;28;20439;-58
2023/10/05 12:20:07;;;;;;;9.43;3.70;;;14.30;82.90;;;;;;5010439;28;20488;-57
2023/10/05 12:22:37;;;;;;;13.50;4.70;;;14.20;99.90;;;;;;5001857;28;20938;-59
2023/10/05 12:25:07;;;;;;;11.57;4.73;;;14.10;99.90;;;;;;5001540;28;20999;-58
2023/10/05 12:27:35;;;;;;;7.23;3.23;;;14.00;99.90;;;;;;5007009;28;20484;-58
2023/10/05 13:09:40;;;;;;;15.13;1.50;;;12.80;99.90;;;;;;5924475;22;20494;-53
2023/10/05 13:12:12;;;;;;;4.57;1.40;;;12.70;99.90;;;;;;5028459;28;20542;-54
2023/10/05 13:14:39;;;;;;;7.80;1.40;;;12.70;99.90;;;;;;5012030;28;20443;-54
2023/10/05 13:17:11;;;;;;;3.90;1.10;;;12.70;99.90;;;;;;5026585;28;20458;-54
2023/10/05 13:19:38;;;;;;;2.93;0.93;;;12.60;99.90;;;;;;5021932;28;20480;-53
2023/10/05 13:22:06;;;;;;;2.80;1.23;;;12.70;99.90;;;;;;4990762;28;20488;-53
2023/10/05 13:24:33;;;;;;;1.73;1.07;;;12.70;99.90;;;;;;5006154;28;20453;-51
2023/10/05 13:27:01;;;;;;;5.53;1.27;;;12.70;99.90;;;;;;4999800;28;20506;-52
2023/10/05 13:29:28;;;;;;;1.93;1.43;;;12.70;99.90;;;;;;5005437;28;20487;-52
2023/10/05 13:31:56;;;;;;;1.73;1.20;;;12.70;99.90;;;;;;5012116;28;21008;-59
2023/10/05 13:34:27;;;;;;;1.50;1.40;;;12.70;99.90;;;;;;5004545;28;20502;-53
2023/10/05 13:36:54;;;;;;;1.57;1.47;;;12.70;99.90;;;;;;4999964;28;20476;-51
2023/10/05 13:39:21;;;;;;;3.63;1.37;;;12.70;99.90;;;;;;5008499;28;20471;-49
2023/10/05 13:41:53;;;;;;;1.60;1.20;;;12.70;99.90;;;;;;4993707;28;20499;-50
2023/10/05 13:44:21;;;;;;;4.50;1.20;;;12.70;99.90;;;;;;4999776;28;20562;-51
2023/10/05 13:46:48;;;;;;;4.63;1.43;;;12.70;99.90;;;;;;5006603;28;20452;-51
2023/10/05 13:49:19;;;;;;;2.23;1.17;;;12.70;99.90;;;;;;5008573;28;20529;-51
2023/10/05 13:51:50;;;;;;;3.13;1.50;;;12.90;99.90;;;;;;5010004;28;20479;-51
2023/10/05 13:54:18;;;;;;;1.70;1.40;;;12.90;99.90;;;;;;5007703;28;20463;-53
2023/10/05 13:56:47;;;;;;;3.03;1.33;;;13.10;99.90;;;;;;5005945;28;20464;-52
2023/10/05 13:59:21;;;;;;;3.40;1.30;;;13.20;99.90;;;;;;5012342;28;20467;-51
2023/10/05 14:01:52;;;;;;;3.13;1.47;;;13.30;99.90;;;;;;5005872;28;20480;-51
2023/10/05 14:04:20;;;;;;;4.07;1.10;;;13.40;99.90;;;;;;5011131;28;20510;-53
2023/10/05 14:06:48;;;;;;;1.50;1.37;;;13.40;99.90;;;;;;5012208;28;20471;-52
2023/10/05 14:09:16;;;;;;;2.30;1.43;;;13.40;99.90;;;;;;5005973;28;20472;-53
2023/10/05 14:11:42;;;;;;;2.10;1.30;;;13.40;99.90;;;;;;5002244;28;20566;-52
2023/10/05 14:14:10;;;;;;;4.60;1.50;;;13.40;99.90;;;;;;5008171;28;20463;-52
2023/10/05 14:16:48;;;;;;;1.90;1.03;;;13.60;99.90;;;;;;5013762;28;20522;-52
2023/10/05 14:19:17;;;;;;;4.50;1.40;;;13.70;99.90;;;;;;5002580;28;20536;-52
2023/10/05 14:21:44;;;;;;;4.13;1.60;;;13.70;99.90;;;;;;5000146;28;21001;-52
2023/10/05 14:24:12;;;;;;;3.27;1.40;;;13.80;99.90;;;;;;5003416;28;20476;-51
2023/10/05 14:26:44;;;;;;;7.10;1.47;;;13.70;99.90;;;;;;5006716;28;20470;-51
2023/10/05 14:29:12;;;;;;;6.17;1.50;;;13.70;99.90;;;;;;5013845;28;20482;-52
2023/10/05 14:31:39;;;;;;;7.60;1.40;;;13.70;99.90;;;;;;5009895;28;20452;-53
2023/10/05 14:34:07;;;;;;;2.70;1.17;;;13.60;99.90;;;;;;5012242;28;20525;-51
2023/10/05 14:36:36;;;;;;;10.03;1.87;;;13.60;99.90;;;;;;5001632;28;20484;-52
2023/10/05 14:39:06;;;;;;;5.17;1.60;;;13.50;99.90;;;;;;5003891;28;20507;-51
2023/10/05 14:41:34;;;;;;;7.93;1.40;;;13.40;99.90;;;;;;5011333;28;21009;-52
2023/10/05 14:44:04;;;;;;;5.60;1.40;;;13.40;99.90;;;;;;5011892;28;20539;-52
2023/10/05 14:46:30;;;;;;;2.93;1.23;;;13.40;99.90;;;;;;5001681;28;20835;-52
2023/10/05 14:48:57;;;;;;;3.07;1.40;;;13.50;99.90;;;;;;4999922;28;20464;-52
2023/10/05 14:51:24;;;;;;;4.23;1.60;;;13.60;99.90;;;;;;5001625;28;21012;-52
2023/10/05 14:53:51;;;;;;;3.70;1.40;;;13.60;99.90;;;;;;5010401;28;20462;-52
2023/10/05 14:56:18;;;;;;;2.60;1.40;;;13.60;99.90;;;;;;5008757;28;20550;-52
2023/10/05 14:58:45;;;;;;;3.87;1.53;;;13.70;99.90;;;;;;5006867;28;20440;-51
2023/10/05 15:01:13;;;;;;;3.70;1.63;;;13.70;99.90;;;;;;5008536;28;20487;-51
2023/10/05 15:03:41;;;;;;;4.30;1.30;;;13.70;99.90;;;;;;5012334;28;20557;-51
2023/10/05 15:06:07;;;;;;;2.30;1.30;;;13.80;99.90;;;;;;5004604;28;20464;-52
2023/10/05 15:08:36;;;;;;;3.07;1.00;;;13.80;99.90;;;;;;5008195;28;21372;-53
2023/10/05 15:11:05;;;;;;;4.50;1.40;;;13.80;99.90;;;;;;5001524;28;20480;-52
2023/10/05 15:13:32;;;;;;;4.27;1.40;;;14.10;99.90;;;;;;5002932;28;20980;-52
2023/10/05 15:15:58;;;;;;;3.20;1.10;;;14.50;99.90;;;;;;5005944;28;20649;-52
2023/10/05 15:18:25;;;;;;;9.60;1.40;;;14.50;99.90;;;;;;5003554;28;20444;-52
2023/10/05 15:20:52;;;;;;;1.90;1.30;;;14.30;99.90;;;;;;5004711;28;20477;-51
2023/10/05 15:23:19;;;;;;;4.03;1.30;;;14.20;99.90;;;;;;5006970;28;20801;-56
2023/10/05 15:25:47;;;;;;;3.87;1.57;;;13.90;99.90;;;;;;5007681;28;20460;-55
2023/10/05 15:28:18;;;;;;;1.90;1.60;;;13.80;99.90;;;;;;5009463;28;20470;-55
2023/10/05 15:30:46;;;;;;;4.03;1.10;;;13.70;99.90;;;;;;5007737;28;20616;-54
2023/10/05 15:33:13;;;;;;;2.40;1.43;;;13.60;99.90;;;;;;5013539;28;20546;-53
2023/10/05 15:35:39;;;;;;;4.13;1.53;;;13.60;99.90;;;;;;5010533;28;20973;-54
2023/10/05 15:38:06;;;;;;;3.23;1.53;;;13.50;99.90;;;;;;5002849;28;20464;-54
2023/10/05 15:40:35;;;;;;;3.63;1.50;;;13.50;99.90;;;;;;5010188;28;20470;-55
2023/10/05 15:43:04;;;;;;;5.80;1.40;;;13.50;99.90;;;;;;5010147;28;20537;-54
2023/10/05 15:45:34;;;;;;;3.37;1.60;;;13.50;99.90;;;;;;4998997;28;20443;-53
2023/10/05 15:48:08;;;;;;;5.40;1.93;;;13.50;99.90;;;;;;5012461;28;20508;-54
2023/10/05 15:50:35;;;;;;;1.60;1.33;;;13.40;99.90;;;;;;5005733;28;20498;-54
2023/10/05 15:53:04;;;;;;;5.30;1.80;;;13.40;99.90;;;;;;5004596;28;20491;-54
2023/10/05 15:55:31;;;;;;;6.20;1.93;;;13.30;99.90;;;;;;5008457;28;20465;-54
2023/10/05 15:57:59;;;;;;;2.33;2.13;;;13.30;99.90;;;;;;5007418;28;20455;-54
2023/10/05 16:00:27;;;;;;;8.30;3.20;;;13.20;99.90;;;;;;5011181;28;20534;-54
2023/10/05 16:02:57;;;;;;;3.67;1.83;;;13.20;99.90;;;;;;5010780;28;20523;-53
2023/10/05 16:05:26;;;;;;;5.30;2.30;;;13.10;99.90;;;;;;5013690;28;20527;-55
2023/10/05 16:07:55;;;;;;;4.53;2.50;;;13.10;99.90;;;;;;5007830;28;20492;-55